Time;durP1;ratioP1;P1;durP2;ratioP2;P2;SDS_P1;SDS_P2;PMS_P1;PMS_P2;Temp;Humidity;BMP_temperature;BMP_pressure;BME280_temperature;BME280_humidity;BME280_pressure;Samples;Min_cycle;Max_cycle;Signal;HPM_P1;HPM_P2
2024/03/28 00:01:01;;;;;;;24.25;10.13;;;4.50;73.30;;;;;;5053185;28;20091;-80
2024/03/28 00:03:27;;;;;;;39.83;10.05;;;4.50;73.70;;;;;;5050174;28;20086;-78
2024/03/28 00:05:57;;;;;;;27.35;9.98;;;4.50;73.60;;;;;;5052747;28;20136;-80
2024/03/28 00:08:27;;;;;;;31.58;11.70;;;4.40;74.10;;;;;;5052718;28;20061;-81
2024/03/28 00:10:54;;;;;;;30.15;10.05;;;4.40;74.40;;;;;;5042426;28;20474;-81
2024/03/28 00:13:21;;;;;;;31.10;11.48;;;4.40;74.50;;;;;;5052509;28;20029;-79
2024/03/28 00:16:00;;;;;;;26.33;10.15;;;4.30;74.40;;;;;;5053315;28;20045;-79
2024/03/28 00:18:27;;;;;;;32.30;11.00;;;4.30;75.00;;;;;;5052538;28;20032;-79
2024/03/28 00:21:00;;;;;;;30.52;10.70;;;4.30;75.00;;;;;;5052175;28;20394;-79
2024/03/28 00:23:26;;;;;;;28.40;10.02;;;4.20;75.20;;;;;;5045078;28;20037;-80
2024/03/28 00:25:57;;;;;;;39.72;12.38;;;4.20;75.30;;;;;;5049463;28;20086;-79
2024/03/28 00:28:23;;;;;;;19.92;10.10;;;4.20;75.40;;;;;;5052602;28;20029;-79
2024/03/28 00:30:49;;;;;;;28.70;12.38;;;4.10;75.50;;;;;;5052265;28;20378;-78
2024/03/28 00:33:16;;;;;;;27.02;11.45;;;4.10;75.70;;;;;;5052397;28;20047;-79
2024/03/28 00:35:43;;;;;;;28.00;9.43;;;4.10;76.10;;;;;;5034513;28;20040;-79
2024/03/28 00:38:09;;;;;;;24.98;10.77;;;4.00;76.20;;;;;;5051514;28;20070;-79
2024/03/28 00:40:37;;;;;;;28.90;10.80;;;4.00;76.40;;;;;;5051367;28;20334;-80
2024/03/28 00:43:03;;;;;;;33.30;11.13;;;4.00;76.60;;;;;;5051783;28;20033;-79
2024/03/28 00:45:29;;;;;;;19.92;10.07;;;4.00;76.60;;;;;;5052108;28;20068;-79
2024/03/28 00:47:55;;;;;;;26.15;9.63;;;4.00;76.70;;;;;;5052023;28;20492;-79
2024/03/28 00:50:21;;;;;;;32.15;9.50;;;3.90;76.80;;;;;;5051826;28;20038;-80
2024/03/28 00:52:47;;;;;;;26.52;9.57;;;3.90;76.90;;;;;;5051808;28;20029;-80
2024/03/28 00:55:13;;;;;;;34.65;11.00;;;3.90;77.20;;;;;;5049080;28;20040;-80
2024/03/28 00:57:39;;;;;;;26.95;10.63;;;3.90;77.50;;;;;;5051834;28;20106;-80
2024/03/28 01:00:07;;;;;;;25.05;9.32;;;3.90;77.60;;;;;;5051734;28;20105;-78
2024/03/28 01:02:32;;;;;;;23.75;9.98;;;3.80;77.50;;;;;;5051805;28;20021;-79
2024/03/28 01:04:58;;;;;;;24.45;8.52;;;3.80;77.50;;;;;;5051792;28;20513;-80
2024/03/28 01:07:24;;;;;;;34.28;10.45;;;3.80;77.60;;;;;;5052017;28;20036;-79
2024/03/28 01:09:50;;;;;;;25.17;9.07;;;3.80;77.60;;;;;;5051703;28;20104;-79
2024/03/28 01:12:15;;;;;;;21.83;9.50;;;3.80;77.50;;;;;;5049307;28;20021;-79
2024/03/28 01:14:41;;;;;;;27.33;10.90;;;3.80;77.50;;;;;;5052257;28;20482;-80
2024/03/28 01:17:07;;;;;;;29.95;15.30;;;3.80;77.40;;;;;;5053606;28;20025;-81
2024/03/28 01:19:33;;;;;;;26.10;14.45;;;3.80;77.00;;;;;;5051665;28;20029;-79
2024/03/28 01:21:58;;;;;;;33.50;10.38;;;3.80;76.70;;;;;;5051871;28;20151;-79
2024/03/28 01:24:24;;;;;;;29.38;14.20;;;3.80;76.70;;;;;;5052969;28;20040;-81
2024/03/28 01:26:50;;;;;;;28.08;13.80;;;3.90;76.50;;;;;;5055960;28;20023;-80
2024/03/28 01:29:16;;;;;;;21.27;10.63;;;3.90;76.10;;;;;;5053865;28;20056;-80
2024/03/28 01:31:41;;;;;;;29.83;11.93;;;3.90;76.20;;;;;;5056604;28;20032;-80
2024/03/28 01:34:07;;;;;;;31.92;13.35;;;3.80;76.10;;;;;;5056531;28;20029;-80
2024/03/28 01:36:34;;;;;;;35.05;11.35;;;3.80;76.00;;;;;;5065180;28;20045;-80
2024/03/28 01:39:00;;;;;;;34.45;14.25;;;3.80;76.20;;;;;;5069326;28;20100;-80
2024/03/28 01:41:26;;;;;;;19.88;10.52;;;3.80;76.20;;;;;;5061913;28;20037;-80
2024/03/28 01:43:52;;;;;;;25.13;11.82;;;3.70;76.30;;;;;;5055233;28;20037;-82
2024/03/28 01:46:18;;;;;;;23.08;11.38;;;3.80;76.00;;;;;;5037920;28;20049;-80
2024/03/28 01:48:48;;;;;;;20.17;11.80;;;3.80;75.70;;;;;;5048127;28;20471;-80
2024/03/28 01:51:15;;;;;;;24.73;11.70;;;3.80;75.50;;;;;;5055487;28;20017;-80
2024/03/28 01:53:43;;;;;;;27.55;13.57;;;3.80;75.40;;;;;;5058594;28;20390;-80
2024/03/28 01:56:09;;;;;;;22.15;11.52;;;3.80;75.40;;;;;;5060307;28;20029;-80
2024/03/28 01:58:35;;;;;;;29.27;13.85;;;3.80;75.50;;;;;;5055450;28;20078;-81
2024/03/28 02:01:02;;;;;;;20.02;11.13;;;3.80;75.50;;;;;;5055206;28;20082;-81
2024/03/28 02:03:28;;;;;;;21.98;11.60;;;3.80;75.60;;;;;;5045917;28;20428;-79
2024/03/28 02:05:54;;;;;;;28.80;14.65;;;3.80;75.70;;;;;;5054878;28;20032;-81
2024/03/28 02:08:20;;;;;;;22.48;10.60;;;3.70;75.90;;;;;;5054764;28;20091;-80
2024/03/28 02:10:46;;;;;;;24.63;11.85;;;3.70;76.20;;;;;;5054974;28;20470;-81
2024/03/28 02:13:12;;;;;;;26.55;11.25;;;3.70;76.20;;;;;;5054781;28;20055;-80
2024/03/28 02:15:38;;;;;;;27.15;11.23;;;3.60;76.40;;;;;;5054718;28;20062;-80
2024/03/28 02:18:04;;;;;;;20.80;9.93;;;3.60;76.30;;;;;;5049001;28;20445;-80
2024/03/28 02:20:30;;;;;;;24.08;10.98;;;3.70;76.00;;;;;;5054291;28;20033;-80
2024/03/28 02:22:56;;;;;;;26.00;10.95;;;3.80;75.60;;;;;;5056164;28;20024;-80
2024/03/28 02:25:23;;;;;;;18.15;9.00;;;3.80;75.60;;;;;;5045439;28;20026;-80
2024/03/28 02:27:49;;;;;;;26.75;10.43;;;3.80;75.30;;;;;;5055147;28;20369;-80
2024/03/28 02:30:15;;;;;;;22.92;10.63;;;3.80;75.40;;;;;;5054463;28;20029;-80
2024/03/28 02:32:41;;;;;;;21.35;9.77;;;3.80;75.70;;;;;;5054616;28;20108;-80
2024/03/28 02:35:08;;;;;;;28.02;11.75;;;3.70;75.70;;;;;;5054395;28;20104;-80
2024/03/28 02:37:34;;;;;;;22.38;9.82;;;3.80;76.00;;;;;;5054358;28;20021;-79
2024/03/28 02:40:01;;;;;;;20.55;10.13;;;3.70;75.90;;;;;;5052695;28;20120;-81
2024/03/28 02:42:27;;;;;;;21.30;10.23;;;3.70;76.00;;;;;;5053187;28;20036;-80
2024/03/28 02:44:53;;;;;;;25.13;11.52;;;3.70;76.10;;;;;;5054031;28;20398;-79
2024/03/28 02:47:19;;;;;;;22.30;10.20;;;3.60;76.20;;;;;;5054473;28;20025;-80
2024/03/28 02:49:45;;;;;;;24.38;10.68;;;3.70;76.50;;;;;;5054876;28;20025;-79
2024/03/28 02:52:11;;;;;;;26.48;10.82;;;3.70;76.70;;;;;;5054144;28;20082;-78
2024/03/28 02:54:37;;;;;;;23.83;11.82;;;3.60;76.90;;;;;;5054104;28;20055;-80
2024/03/28 02:57:05;;;;;;;19.30;10.00;;;3.60;77.10;;;;;;5051634;28;20108;-80
2024/03/28 02:59:31;;;;;;;;;;;3.60;77.50;;;;;;5054358;28;20437;-79
2024/03/28 03:01:57;;;;;;;24.42;9.88;;;3.60;77.10;;;;;;5054573;28;20422;-80
2024/03/28 03:04:23;;;;;;;31.67;12.55;;;3.50;77.50;;;;;;5054335;28;20060;-80
2024/03/28 03:06:49;;;;;;;30.05;10.80;;;3.50;77.80;;;;;;5053586;28;20474;-80
2024/03/28 03:09:15;;;;;;;29.90;10.98;;;3.40;78.10;;;;;;5054047;28;20104;-81
2024/03/28 03:11:41;;;;;;;30.13;13.52;;;3.50;78.40;;;;;;5054646;28;20028;-80
2024/03/28 03:14:07;;;;;;;36.03;12.32;;;3.40;78.50;;;;;;5051182;28;20036;-80
2024/03/28 03:16:33;;;;;;;21.15;10.20;;;3.40;78.90;;;;;;5053580;28;20077;-80
2024/03/28 03:19:04;;;;;;;23.88;10.30;;;3.40;79.10;;;;;;5053337;28;20106;-77
2024/03/28 03:21:29;;;;;;;30.15;11.40;;;3.50;79.00;;;;;;5053764;28;20052;-80
2024/03/28 03:24:00;;;;;;;16.98;9.75;;;3.50;78.80;;;;;;5053665;28;20037;-79
2024/03/28 03:26:30;;;;;;;27.95;10.98;;;3.60;78.60;;;;;;5049864;28;20056;-80
2024/03/28 03:34:35;;;;;;;28.02;13.35;;;3.80;78.20;;;;;;5040150;28;20035;-79
2024/03/28 03:37:14;;;;;;;32.80;12.82;;;3.90;78.30;;;;;;5053561;28;20070;-80
2024/03/28 03:39:39;;;;;;;26.13;11.43;;;3.90;78.30;;;;;;5035816;28;20512;-79
2024/03/28 03:42:08;;;;;;;26.95;11.63;;;3.90;78.20;;;;;;5053669;28;20025;-80
2024/03/28 03:44:34;;;;;;;28.95;12.27;;;3.90;78.30;;;;;;5042944;28;20486;-80
2024/03/28 03:47:00;;;;;;;30.25;12.70;;;3.90;78.30;;;;;;5052563;28;20078;-79
2024/03/28 03:49:26;;;;;;;32.13;12.37;;;4.00;78.50;;;;;;5052860;28;20025;-79
2024/03/28 03:51:52;;;;;;;29.45;13.60;;;4.00;78.50;;;;;;5056757;28;20017;-80
2024/03/28 03:54:18;;;;;;;36.85;14.13;;;4.00;78.40;;;;;;5052977;28;20059;-80
2024/03/28 03:56:44;;;;;;;28.92;12.63;;;4.10;78.60;;;;;;5066947;28;20078;-81
2024/03/28 03:59:10;;;;;;;29.88;12.60;;;4.10;78.50;;;;;;5063126;28;20024;-80
2024/03/28 04:01:36;;;;;;;32.58;13.75;;;4.20;78.30;;;;;;5056700;28;20055;-80
2024/03/28 04:04:02;;;;;;;24.38;12.27;;;4.30;78.00;;;;;;5052725;28;20040;-81
2024/03/28 04:06:28;;;;;;;31.80;13.23;;;4.40;77.50;;;;;;5052394;28;20017;-78
2024/03/28 04:08:54;;;;;;;28.15;13.23;;;4.50;78.00;;;;;;5034712;28;20265;-80
2024/03/28 04:11:20;;;;;;;35.72;14.38;;;4.60;77.90;;;;;;5052831;28;20056;-79
2024/03/28 04:13:45;;;;;;;36.33;14.65;;;4.70;77.40;;;;;;5052584;28;20021;-81
2024/03/28 04:16:11;;;;;;;36.70;14.40;;;4.80;77.30;;;;;;5052771;28;20485;-81
2024/03/28 04:18:37;;;;;;;33.10;13.98;;;5.00;77.20;;;;;;5053788;28;20033;-82
2024/03/28 04:21:03;;;;;;;29.42;13.48;;;5.30;76.50;;;;;;5045519;28;20053;-81
2024/03/28 04:23:28;;;;;;;33.00;14.43;;;5.60;75.50;;;;;;5053073;28;20033;-80
2024/03/28 04:25:59;;;;;;;37.65;16.02;;;6.00;74.70;;;;;;5041788;28;20029;-81
2024/03/28 04:28:25;;;;;;;33.58;15.40;;;6.50;73.30;;;;;;5036226;28;20021;-80
2024/03/28 04:30:51;;;;;;;38.55;14.88;;;6.80;72.30;;;;;;5056076;28;20106;-81
2024/03/28 04:33:17;;;;;;;31.85;13.15;;;7.10;71.30;;;;;;5034991;28;20029;-80
2024/03/28 04:35:45;;;;;;;26.83;14.57;;;7.40;70.00;;;;;;5052880;28;20025;-81
2024/03/28 04:38:14;;;;;;;32.55;14.80;;;7.40;68.30;;;;;;5052889;28;20039;-80
2024/03/28 04:40:40;;;;;;;53.97;14.88;;;7.20;68.00;;;;;;5052361;28;20028;-81
2024/03/28 04:43:06;;;;;;;43.22;15.23;;;6.90;68.50;;;;;;5049534;28;20056;-81
2024/03/28 04:45:32;;;;;;;41.95;16.00;;;6.80;69.20;;;;;;5047703;28;20068;-80
2024/03/28 04:47:58;;;;;;;41.15;14.98;;;6.90;70.00;;;;;;5071721;28;20451;-81
2024/03/28 04:50:23;;;;;;;34.42;15.00;;;7.10;69.90;;;;;;5071813;28;20108;-80
2024/03/28 04:52:49;;;;;;;37.25;15.43;;;7.10;68.30;;;;;;5057812;28;20021;-79
2024/03/28 04:55:15;;;;;;;43.13;16.40;;;7.10;68.30;;;;;;5034389;28;20426;-78
2024/03/28 04:57:41;;;;;;;38.33;15.35;;;7.40;68.20;;;;;;5052514;28;20560;-79
2024/03/28 05:00:10;;;;;;;35.88;14.13;;;7.90;67.20;;;;;;5049537;28;20118;-80
2024/03/28 05:02:37;;;;;;;41.20;15.52;;;7.60;66.80;;;;;;5052376;28;20375;-79
2024/03/28 05:05:04;;;;;;;38.15;15.48;;;7.10;67.70;;;;;;5033946;28;20091;-80
2024/03/28 05:07:30;;;;;;;;;;;6.70;68.70;;;;;;5052456;28;20056;-81
2024/03/28 05:09:56;;;;;;;35.30;16.40;;;6.50;69.10;;;;;;5033716;28;20372;-82
2024/03/28 05:12:22;;;;;;;35.10;15.88;;;6.30;69.70;;;;;;5017703;28;20163;-80
2024/03/28 05:14:49;;;;;;;44.80;15.80;;;6.20;70.00;;;;;;5050037;28;20021;-80
2024/03/28 05:17:15;;;;;;;37.83;17.25;;;6.10;70.40;;;;;;5051887;28;20070;-80
2024/03/28 05:19:40;;;;;;;34.72;16.27;;;6.00;70.70;;;;;;5051795;28;20096;-81
2024/03/28 05:22:09;;;;;;;31.15;14.43;;;6.00;71.00;;;;;;5034180;28;20036;-81
2024/03/28 05:24:36;;;;;;;32.33;14.30;;;5.90;71.00;;;;;;5034495;28;20037;-82
2024/03/28 05:27:02;;;;;;;32.50;15.32;;;5.90;71.00;;;;;;5032243;28;20044;-81
2024/03/28 05:29:29;;;;;;;41.25;16.58;;;5.90;71.10;;;;;;5023098;28;20033;-81
2024/03/28 05:31:55;;;;;;;36.60;17.77;;;5.90;71.20;;;;;;5062737;28;20028;-80
2024/03/28 05:34:21;;;;;;;36.97;17.20;;;5.90;71.40;;;;;;5061588;28;20051;-80
2024/03/28 05:36:47;;;;;;;42.95;15.32;;;6.00;71.40;;;;;;5070530;28;20024;-81
2024/03/28 05:39:14;;;;;;;35.42;16.38;;;5.90;71.50;;;;;;5051783;28;20027;-81
2024/03/28 05:41:43;;;;;;;39.50;16.60;;;5.90;71.60;;;;;;5053531;28;20048;-79
2024/03/28 05:44:11;;;;;;;44.88;16.67;;;5.90;71.70;;;;;;5051621;28;20174;-80
2024/03/28 05:46:37;;;;;;;38.88;15.95;;;5.90;71.70;;;;;;5046004;28;20024;-80
2024/03/28 05:49:03;;;;;;;43.45;16.23;;;5.90;71.80;;;;;;5056264;28;20029;-81
2024/03/28 05:51:35;;;;;;;38.88;16.17;;;6.00;71.70;;;;;;5047639;28;20116;-81
2024/03/28 05:57:10;;;;;;;28.05;15.05;;;6.20;71.40;;;;;;4972615;28;20153;-82
2024/03/28 05:59:36;;;;;;;32.33;15.25;;;6.20;70.70;;;;;;5036607;28;20136;-82
2024/03/28 06:02:04;;;;;;;31.05;14.65;;;6.30;70.30;;;;;;5030157;28;20025;-80
2024/03/28 06:04:29;;;;;;;31.98;14.05;;;6.30;70.10;;;;;;5062746;28;20111;-81
2024/03/28 06:06:58;;;;;;;32.90;14.85;;;6.40;69.40;;;;;;5056606;28;20052;-82
2024/03/28 06:09:24;;;;;;;35.00;15.82;;;6.40;69.20;;;;;;5051845;28;20033;-78
2024/03/28 06:11:50;;;;;;;31.48;12.88;;;6.40;69.20;;;;;;5054322;28;20016;-81
2024/03/28 06:14:24;;;;;;;31.27;13.15;;;6.50;68.80;;;;;;5061895;28;20174;-85
2024/03/28 06:17:00;;;;;;;36.88;13.55;;;6.60;68.50;;;;;;5038293;28;20024;-86
2024/03/28 06:19:26;;;;;;;33.33;14.13;;;6.70;68.30;;;;;;5061853;28;20033;-87
2024/03/28 06:21:52;;;;;;;36.13;12.80;;;6.90;68.10;;;;;;5060303;28;20044;-88
2024/03/28 06:24:18;;;;;;;39.65;13.57;;;6.90;67.30;;;;;;5071131;28;20039;-86
2024/03/28 06:26:50;;;;;;;27.98;13.35;;;7.10;67.20;;;;;;5066373;28;20059;-86
2024/03/28 06:29:15;;;;;;;23.38;11.27;;;7.20;66.70;;;;;;5070721;28;20490;-88
2024/03/28 06:31:41;;;;;;;31.17;12.60;;;7.30;66.30;;;;;;5065324;28;20028;-88
2024/03/28 06:34:07;;;;;;;30.00;11.27;;;7.40;65.60;;;;;;5049933;28;20111;-88
2024/03/28 06:36:33;;;;;;;25.13;10.25;;;7.50;64.60;;;;;;5068407;28;20073;-88
2024/03/28 06:38:59;;;;;;;22.13;10.02;;;7.60;64.00;;;;;;5068105;28;20060;-88
2024/03/28 06:41:25;;;;;;;29.80;11.05;;;7.60;63.80;;;;;;5071962;28;20381;-90
2024/03/28 06:43:51;;;;;;;23.35;10.02;;;7.70;63.30;;;;;;5065342;28;20068;-89
2024/03/28 06:46:17;;;;;;;24.13;9.88;;;7.80;62.60;;;;;;5069207;28;20028;-88
2024/03/28 06:48:43;;;;;;;24.92;10.38;;;7.90;62.60;;;;;;5063297;28;20100;-87
2024/03/28 06:51:09;;;;;;;22.88;10.98;;;8.10;62.40;;;;;;5062454;28;20013;-87
2024/03/28 06:53:35;;;;;;;27.45;9.75;;;8.30;61.90;;;;;;5057080;28;20013;-90
2024/03/28 06:56:01;;;;;;;19.98;9.07;;;8.50;61.40;;;;;;5058226;28;20040;-88
2024/03/28 06:58:28;;;;;;;16.05;7.82;;;8.80;60.50;;;;;;5056000;28;20025;-86
2024/03/28 07:01:03;;;;;;;22.00;7.78;;;9.00;60.40;;;;;;5059018;28;20021;-90
2024/03/28 07:03:31;;;;;;;19.58;8.00;;;9.20;59.50;;;;;;5058101;28;20025;-87
2024/03/28 07:05:57;;;;;;;14.52;6.55;;;9.30;59.00;;;;;;5056897;28;20071;-88
2024/03/28 07:08:23;;;;;;;20.70;6.38;;;9.50;58.30;;;;;;5057328;28;20021;-88
2024/03/28 07:10:49;;;;;;;15.52;6.13;;;9.70;57.70;;;;;;5043562;28;20040;-87
2024/03/28 07:13:15;;;;;;;11.73;5.68;;;9.70;56.30;;;;;;5062574;28;20043;-89
2024/03/28 07:15:40;;;;;;;15.98;7.82;;;9.90;56.30;;;;;;5044974;28;20382;-88
2024/03/28 07:18:07;;;;;;;22.30;8.73;;;10.70;56.60;;;;;;5056584;28;20048;-90
2024/03/28 07:20:33;;;;;;;13.77;4.97;;;12.40;54.80;;;;;;5057257;28;20529;-88
2024/03/28 07:22:59;;;;;;;18.52;6.85;;;13.40;50.00;;;;;;5055631;28;20029;-87
2024/03/28 07:25:27;;;;;;;15.38;7.07;;;13.30;50.30;;;;;;5056741;28;20087;-87
2024/03/28 07:27:53;;;;;;;13.13;6.60;;;13.50;50.00;;;;;;5056234;28;20103;-89
2024/03/28 07:30:18;;;;;;;13.52;6.47;;;13.30;49.60;;;;;;5069712;28;20485;-87
2024/03/28 07:32:48;;;;;;;18.67;7.32;;;13.00;49.90;;;;;;5055937;28;20316;-87
2024/03/28 07:35:14;;;;;;;10.60;6.03;;;12.80;49.70;;;;;;5056395;28;20421;-89
2024/03/28 07:37:40;;;;;;;9.50;5.50;;;12.50;50.20;;;;;;5056547;28;20070;-87
2024/03/28 07:40:09;;;;;;;12.38;5.80;;;12.70;50.10;;;;;;5056112;28;20207;-88
2024/03/28 07:42:35;;;;;;;10.07;4.57;;;13.10;49.90;;;;;;5055247;28;20017;-90
2024/03/28 07:45:02;;;;;;;11.25;4.18;;;14.00;49.00;;;;;;5055892;28;20033;-88
2024/03/28 07:47:29;;;;;;;10.23;4.80;;;14.90;46.90;;;;;;5055542;28;20470;-87
2024/03/28 07:49:55;;;;;;;12.83;5.17;;;15.60;46.70;;;;;;5061788;28;20049;-88
2024/03/28 07:52:21;;;;;;;10.35;3.97;;;16.50;45.20;;;;;;5059920;28;20029;-87
2024/03/28 07:54:48;;;;;;;10.73;5.55;;;17.60;43.50;;;;;;5060784;28;20024;-88
2024/03/28 07:57:15;;;;;;;8.45;4.88;;;18.60;42.20;;;;;;5058143;28;20027;-90
2024/03/28 07:59:40;;;;;;;14.95;5.30;;;19.30;40.80;;;;;;5061392;28;20111;-89
2024/03/28 08:02:06;;;;;;;9.20;4.57;;;18.90;40.50;;;;;;5058594;28;20052;-90
2024/03/28 08:04:32;;;;;;;10.57;5.32;;;18.20;40.50;;;;;;5054759;28;20033;-89
2024/03/28 08:06:59;;;;;;;12.35;5.55;;;18.50;40.70;;;;;;5055102;28;20477;-93
2024/03/28 08:09:26;;;;;;;4.10;3.60;;;19.30;39.80;;;;;;5053714;28;20044;-88
2024/03/28 08:11:52;;;;;;;10.52;5.43;;;19.70;38.60;;;;;;5055001;28;20037;-89
2024/03/28 08:14:18;;;;;;;9.77;5.43;;;20.10;37.90;;;;;;5054846;28;20378;-89
2024/03/28 08:16:44;;;;;;;12.48;6.15;;;20.20;37.60;;;;;;5054906;28;20373;-89
2024/03/28 08:19:09;;;;;;;22.13;7.88;;;19.60;37.50;;;;;;5055815;28;20060;-89
2024/03/28 08:21:36;;;;;;;14.50;6.13;;;18.20;39.20;;;;;;5039183;28;20045;-87
2024/03/28 08:24:05;;;;;;;14.40;7.00;;;16.80;40.70;;;;;;5054690;28;20040;-88
2024/03/28 08:26:31;;;;;;;18.75;6.80;;;16.10;42.00;;;;;;5055428;28;20063;-87
2024/03/28 08:28:57;;;;;;;15.07;6.45;;;15.60;42.40;;;;;;5056393;28;20021;-84
2024/03/28 08:31:23;;;;;;;10.73;4.97;;;14.30;43.60;;;;;;5057953;28;20044;-88
2024/03/28 08:33:49;;;;;;;16.77;6.13;;;13.50;45.00;;;;;;5055596;28;20032;-88
2024/03/28 08:36:15;;;;;;;15.75;6.57;;;13.30;46.00;;;;;;5058336;28;20029;-85
2024/03/28 08:38:41;;;;;;;16.50;7.47;;;13.20;46.20;;;;;;5061063;28;20065;-86
2024/03/28 08:41:07;;;;;;;13.15;6.47;;;13.30;46.50;;;;;;5040744;28;20394;-89
2024/03/28 08:43:33;;;;;;;13.73;6.90;;;13.80;46.40;;;;;;5037067;28;20025;-87
2024/03/28 08:45:59;;;;;;;13.30;6.47;;;14.20;45.30;;;;;;5054345;28;20060;-88
2024/03/28 08:48:25;;;;;;;14.75;6.47;;;14.60;44.80;;;;;;5055030;28;20028;-87
2024/03/28 08:50:51;;;;;;;15.03;6.80;;;14.80;44.30;;;;;;5039685;28;20040;-87
2024/03/28 08:53:17;;;;;;;13.55;5.68;;;14.50;44.40;;;;;;5041090;28;20029;-85
2024/03/28 08:55:43;;;;;;;11.40;4.90;;;13.60;45.30;;;;;;5058518;28;20021;-88
2024/03/28 08:58:10;;;;;;;12.73;5.05;;;13.30;46.80;;;;;;5053851;28;20025;-86
2024/03/28 09:00:36;;;;;;;10.82;4.63;;;12.90;46.50;;;;;;5053527;28;20028;-88
2024/03/28 09:03:01;;;;;;;9.38;4.53;;;12.50;47.10;;;;;;5053573;28;20029;-88
2024/03/28 09:05:32;;;;;;;11.63;5.18;;;12.10;48.00;;;;;;5035441;28;20040;-90
2024/03/28 09:08:13;;;;;;;14.90;5.88;;;12.10;48.50;;;;;;5053093;28;20027;-90
2024/03/28 09:10:39;;;;;;;12.25;5.05;;;12.50;48.20;;;;;;5053778;28;20132;-85
2024/03/28 09:13:05;;;;;;;19.83;8.25;;;12.70;47.60;;;;;;5053357;28;20482;-90
2024/03/28 09:15:32;;;;;;;12.75;5.57;;;13.00;47.50;;;;;;5036656;28;20025;-86
2024/03/28 09:17:58;;;;;;;14.63;7.30;;;13.10;47.40;;;;;;5053314;28;20430;-88
2024/03/28 09:20:26;;;;;;;19.35;5.80;;;13.50;47.90;;;;;;5035925;28;20052;-86
2024/03/28 09:22:52;;;;;;;16.05;5.60;;;14.10;46.70;;;;;;5053282;28;20068;-88
2024/03/28 09:25:21;;;;;;;15.38;7.10;;;14.40;46.10;;;;;;5034952;28;20061;-86
2024/03/28 09:27:46;;;;;;;10.98;5.03;;;14.60;46.50;;;;;;5053520;28;20379;-87
2024/03/28 09:30:14;;;;;;;12.80;5.63;;;15.10;45.10;;;;;;5053225;28;20078;-85
2024/03/28 09:32:40;;;;;;;7.93;5.32;;;15.00;45.60;;;;;;5052618;28;20060;-87
2024/03/28 09:35:08;;;;;;;14.10;8.02;;;15.80;45.40;;;;;;5053339;28;20058;-88
2024/03/28 09:37:34;;;;;;;18.25;7.93;;;16.70;43.90;;;;;;5049451;28;20021;-87
2024/03/28 09:40:00;;;;;;;17.95;7.50;;;17.90;43.20;;;;;;5054200;28;20025;-87
2024/03/28 09:42:26;;;;;;;20.45;5.80;;;19.90;40.90;;;;;;5036154;28;20032;-86
2024/03/28 09:44:52;;;;;;;20.65;8.32;;;20.60;38.70;;;;;;5053914;28;20032;-88
2024/03/28 09:47:21;;;;;;;18.50;7.90;;;20.80;37.80;;;;;;5039274;28;20025;-86
2024/03/28 09:49:47;;;;;;;13.43;5.65;;;20.20;37.90;;;;;;5056110;28;20029;-85
2024/03/28 09:52:14;;;;;;;16.27;5.55;;;19.90;38.30;;;;;;5056124;28;20013;-87
2024/03/28 09:54:44;;;;;;;22.00;5.80;;;19.20;38.60;;;;;;5038027;28;20024;-84
2024/03/28 09:57:10;;;;;;;15.13;4.65;;;18.60;39.50;;;;;;5058039;28;20246;-87
2024/03/28 09:59:35;;;;;;;8.95;4.65;;;18.50;39.80;;;;;;5060152;28;20389;-87
2024/03/28 10:02:47;;;;;;;15.77;4.35;;;18.40;38.90;;;;;;5041202;28;20045;-86
2024/03/28 10:05:13;;;;;;;14.35;7.72;;;19.10;39.70;;;;;;5024584;28;20052;-87
2024/03/28 10:07:40;;;;;;;12.77;3.78;;;19.20;37.80;;;;;;5055880;28;20032;-86
2024/03/28 10:10:12;;;;;;;11.65;4.30;;;18.90;38.10;;;;;;5037389;28;20128;-88
2024/03/28 10:12:38;;;;;;;5.65;3.03;;;18.60;39.40;;;;;;5056053;28;20057;-86
2024/03/28 10:15:05;;;;;;;7.70;2.90;;;17.60;38.90;;;;;;5056082;28;20021;-86
2024/03/28 10:17:31;;;;;;;9.77;4.38;;;16.10;41.10;;;;;;5056642;28;20025;-88
2024/03/28 10:20:10;;;;;;;11.85;4.82;;;15.50;42.30;;;;;;5056549;28;20106;-85
2024/03/28 10:22:52;;;;;;;8.52;3.17;;;15.90;42.10;;;;;;5057476;28;20096;-88
2024/03/28 10:25:25;;;;;;;10.07;4.18;;;16.20;41.10;;;;;;5056837;28;20037;-85
2024/03/28 10:27:56;;;;;;;8.02;3.10;;;15.80;41.30;;;;;;5055396;28;20009;-85
2024/03/28 10:30:26;;;;;;;6.18;3.33;;;14.50;42.50;;;;;;5055495;28;20585;-86
2024/03/28 10:33:04;;;;;;;14.25;4.75;;;13.90;43.70;;;;;;5038411;28;20028;-85
2024/03/28 10:35:33;;;;;;;;;;;13.50;44.90;;;;;;5056835;28;20017;-85
2024/03/28 10:38:06;;;;;;;8.25;3.60;;;13.80;44.70;;;;;;5056380;28;19904;-85
2024/03/28 10:40:37;;;;;;;8.77;3.45;;;13.70;45.10;;;;;;5057748;28;20065;-86
2024/03/28 10:43:06;;;;;;;7.43;3.50;;;13.90;44.70;;;;;;5057772;28;20449;-89
2024/03/28 10:45:33;;;;;;;7.43;3.60;;;13.60;44.70;;;;;;5055278;28;20036;-88
2024/03/28 10:48:01;;;;;;;11.90;4.88;;;13.30;44.50;;;;;;5040806;28;20382;-85
2024/03/28 10:50:39;;;;;;;10.68;3.55;;;13.10;45.10;;;;;;5036918;28;20119;-86
2024/03/28 10:53:13;;;;;;;10.05;3.75;;;13.10;44.70;;;;;;5055210;28;20017;-89
2024/03/28 10:55:43;;;;;;;10.48;3.60;;;13.10;45.30;;;;;;5055423;28;20045;-87
2024/03/28 10:58:09;;;;;;;6.05;3.25;;;12.90;45.10;;;;;;5055212;28;20021;-87
2024/03/28 11:00:37;;;;;;;6.20;2.90;;;12.40;45.30;;;;;;5055062;28;20503;-87
2024/03/28 11:03:04;;;;;;;4.97;3.22;;;12.50;45.60;;;;;;5055698;28;20029;-85
2024/03/28 11:05:32;;;;;;;12.27;3.58;;;12.30;46.60;;;;;;5055339;28;20123;-87
2024/03/28 11:07:59;;;;;;;9.23;4.65;;;12.20;47.10;;;;;;5055525;28;20025;-87
2024/03/28 11:10:25;;;;;;;9.07;4.05;;;12.40;47.40;;;;;;5054691;28;20131;-88
2024/03/28 11:12:53;;;;;;;11.95;4.57;;;12.40;47.40;;;;;;5065563;28;20036;-85
2024/03/28 11:15:20;;;;;;;6.32;3.60;;;12.60;47.50;;;;;;5057131;28;20537;-85
2024/03/28 11:17:46;;;;;;;7.00;2.30;;;12.90;47.10;;;;;;5054637;28;20063;-87
2024/03/28 11:20:18;;;;;;;7.85;3.08;;;13.10;46.20;;;;;;5054504;28;20056;-86
2024/03/28 11:22:44;;;;;;;17.00;5.75;;;12.60;46.50;;;;;;5055026;28;20028;-90
2024/03/28 11:25:35;;;;;;;18.48;5.00;;;12.30;47.80;;;;;;5054410;28;20037;-88
2024/03/28 11:28:11;;;;;;;17.30;4.38;;;12.50;47.90;;;;;;5054295;28;20036;-87
2024/03/28 11:30:51;;;;;;;6.93;3.40;;;12.60;47.60;;;;;;5053875;28;20032;-88
2024/03/28 11:33:34;;;;;;;8.05;3.80;;;12.40;47.30;;;;;;5054043;28;20033;-89
2024/03/28 11:36:07;;;;;;;9.63;3.40;;;12.00;48.40;;;;;;5036421;28;20037;-86
2024/03/28 11:38:34;;;;;;;4.63;3.10;;;11.70;49.00;;;;;;5054695;28;20029;-86
2024/03/28 11:41:00;;;;;;;4.15;2.33;;;11.70;49.10;;;;;;5054707;28;20039;-86
2024/03/28 11:43:27;;;;;;;3.83;2.95;;;11.50;49.30;;;;;;5053939;28;20064;-88
2024/03/28 11:45:57;;;;;;;6.75;2.42;;;11.30;49.40;;;;;;5036500;28;20470;-86
2024/03/28 11:48:28;;;;;;;9.15;3.55;;;11.10;49.90;;;;;;5054468;28;20070;-90
2024/03/28 11:50:55;;;;;;;6.45;3.35;;;11.00;50.30;;;;;;5036422;28;20550;-87
2024/03/28 11:53:21;;;;;;;14.70;4.38;;;11.10;50.20;;;;;;5035413;28;20135;-88
2024/03/28 11:55:48;;;;;;;8.45;3.17;;;11.20;50.40;;;;;;5053504;28;20040;-87
2024/03/28 11:58:20;;;;;;;5.80;3.20;;;11.30;50.00;;;;;;5053828;28;20023;-85
2024/03/28 12:00:47;;;;;;;6.78;3.30;;;11.40;50.00;;;;;;5036307;28;20057;-87
2024/03/28 12:03:13;;;;;;;14.77;8.57;;;11.40;49.50;;;;;;5049348;28;20047;-86
2024/03/28 12:05:53;;;;;;;14.77;6.95;;;11.30;50.10;;;;;;5035519;28;20028;-85
2024/03/28 12:08:24;;;;;;;4.85;2.83;;;11.30;50.00;;;;;;5052621;28;20021;-85
2024/03/28 12:10:50;;;;;;;3.90;2.35;;;11.50;49.90;;;;;;5053850;28;20035;-87
2024/03/28 12:13:16;;;;;;;10.65;3.33;;;11.40;49.60;;;;;;5035918;28;20020;-87
2024/03/28 12:15:42;;;;;;;8.90;2.45;;;11.30;49.90;;;;;;5036834;28;20032;-87
2024/03/28 12:18:10;;;;;;;6.40;3.38;;;11.30;50.10;;;;;;5053142;28;20021;-86
2024/03/28 12:20:39;;;;;;;12.27;3.67;;;11.50;50.10;;;;;;5035067;28;20136;-85
2024/03/28 12:23:07;;;;;;;9.07;3.67;;;11.70;49.90;;;;;;5035928;28;20036;-86
2024/03/28 12:25:32;;;;;;;7.65;4.32;;;12.10;49.50;;;;;;5035814;28;20044;-87
2024/03/28 12:28:00;;;;;;;10.65;4.05;;;12.40;49.00;;;;;;5035156;28;20073;-87
2024/03/28 12:30:27;;;;;;;8.02;2.60;;;12.60;48.40;;;;;;5067644;28;20029;-87
2024/03/28 12:33:04;;;;;;;12.93;4.10;;;12.60;47.90;;;;;;5061716;28;20024;-86
2024/03/28 12:35:32;;;;;;;9.88;3.60;;;12.50;48.40;;;;;;5060607;28;20081;-86
2024/03/28 12:38:01;;;;;;;5.10;2.60;;;12.60;47.50;;;;;;5053499;28;20025;-87
2024/03/28 12:40:28;;;;;;;9.82;3.22;;;12.30;47.40;;;;;;5053555;28;20091;-87
2024/03/28 12:42:55;;;;;;;12.90;4.20;;;11.70;48.30;;;;;;5053285;28;20024;-86
2024/03/28 12:45:25;;;;;;;6.95;4.00;;;11.60;49.60;;;;;;5054376;28;20806;-86
2024/03/28 12:47:54;;;;;;;12.60;3.95;;;11.70;48.90;;;;;;5061231;28;20017;-88
2024/03/28 12:50:24;;;;;;;13.50;4.88;;;11.80;48.80;;;;;;5065377;28;20025;-87